Time;durP1;ratioP1;P1;durP2;ratioP2;P2;SDS_P1;SDS_P2;PMS_P1;PMS_P2;Temp;Humidity;BMP_temperature;BMP_pressure;BME280_temperature;BME280_humidity;BME280_pressure;Samples;Min_cycle;Max_cycle;Signal;HPM_P1;HPM_P2
2023/01/03 00:01:46;;;;;;;;;;;;;;;17.40;48.35;101828.56;5095095;28;2254;-48
2023/01/03 00:04:11;;;;;;;;;;;;;;;17.31;48.04;101819.06;5088191;28;1015;-50
2023/01/03 00:06:38;;;;;;;;;;;;;;;17.57;48.73;101812.00;5097456;28;1179;-48
2023/01/03 00:09:04;;;;;;;;;;;;;;;17.14;47.97;101810.88;5097714;28;1114;-51
2023/01/03 00:14:14;;;;;;;;;;;;;;;17.48;48.51;101813.53;5097801;28;1905;-52
2023/01/03 00:16:40;;;;;;;;;;;;;;;17.08;47.52;101809.97;5097360;28;1077;-49
2023/01/03 00:19:12;;;;;;;;;;;;;;;18.45;47.27;101800.09;5097081;28;1051;-50
2023/01/03 00:21:37;;;;;;;;;;;;;;;17.33;48.57;101800.41;5084878;28;1071;-49
2023/01/03 00:24:03;;;;;;;;;;;;;;;17.56;48.59;101798.53;5097210;28;1146;-51
2023/01/03 00:26:28;;;;;;;;;;;;;;;17.86;48.24;101797.22;5097266;28;1045;-47
2023/01/03 00:28:54;;;;;;;;;;;;;;;17.31;47.95;101791.59;5095579;28;979;-48
2023/01/03 00:31:19;;;;;;;;;;;;;;;18.60;47.48;101787.53;5097475;28;1137;-50
2023/01/03 00:33:45;;;;;;;;;;;;;;;17.54;48.37;101790.50;5092639;28;2638;-48
2023/01/03 00:36:10;;;;;;;;;;;;;;;17.20;48.24;101789.78;5096404;28;1472;-50
2023/01/03 00:38:36;;;;;;;;;;;;;;;18.01;48.31;101783.66;5096850;28;1205;-51
2023/01/03 00:41:02;;;;;;;;;;;;;;;17.22;48.23;101788.44;5096677;28;1051;-51
2023/01/03 00:43:28;;;;;;;;;;;;;;;18.43;47.76;101787.66;5096614;28;1134;-52
2023/01/03 00:45:53;;;;;;;;;;;;;;;17.68;48.53;101784.63;5096936;28;1102;-52
2023/01/03 00:48:19;;;;;;;;;;;;;;;17.24;47.77;101768.94;5096713;28;1362;-53
2023/01/03 00:50:44;;;;;;;;;;;;;;;17.75;48.37;101768.75;5097107;28;1138;-53
2023/01/03 00:53:09;;;;;;;;;;;;;;;17.48;48.59;101772.28;5096967;28;1972;-48
2023/01/03 00:55:35;;;;;;;;;;;;;;;17.15;47.69;101764.97;5097438;28;1118;-45
2023/01/03 00:58:00;;;;;;;;;;;;;;;17.74;48.48;101767.94;5096438;28;1030;-47
2023/01/03 01:00:26;;;;;;;;;;;;;;;17.89;48.28;101763.69;5096750;28;1101;-48
2023/01/03 01:02:52;;;;;;;;;;;;;;;17.16;48.07;101767.47;5085696;28;1815;-50
2023/01/03 01:05:17;;;;;;;;;;;;;;;18.81;47.02;101769.22;5096395;28;1062;-46
2023/01/03 01:07:43;;;;;;;;;;;;;;;17.58;48.33;101760.59;5096133;28;1018;-52
2023/01/03 01:10:08;;;;;;;;;;;;;;;17.26;47.52;101753.03;5096711;28;1034;-50
2023/01/03 01:12:34;;;;;;;;;;;;;;;17.25;47.60;101759.59;5090688;28;1103;-48
2023/01/03 01:14:59;;;;;;;;;;;;;;;17.52;48.46;101753.38;5096272;28;1930;-48
2023/01/03 01:17:27;;;;;;;;;;;;;;;18.11;48.09;101753.50;5095856;28;1097;-49
2023/01/03 01:19:52;;;;;;;;;;;;;;;19.52;45.72;101745.94;5096377;28;1139;-50
2023/01/03 01:22:18;;;;;;;;;;;;;;;17.89;48.50;101749.94;5096150;28;1118;-51
2023/01/03 01:24:43;;;;;;;;;;;;;;;17.39;47.90;101749.91;5095682;28;1069;-52
2023/01/03 01:27:08;;;;;;;;;;;;;;;18.03;48.01;101748.44;5095245;28;1129;-52
2023/01/03 01:29:34;;;;;;;;;;;;;;;17.72;48.75;101747.28;5096609;28;1062;-51
2023/01/03 01:32:00;;;;;;;;;;;;;;;17.36;47.58;101739.44;5092509;28;2272;-51
2023/01/03 01:34:26;;;;;;;;;;;;;;;17.81;47.92;101739.38;5082605;28;1964;-52
2023/01/03 01:36:51;;;;;;;;;;;;;;;17.92;48.22;101733.78;5096141;28;1114;-50
2023/01/03 01:39:20;;;;;;;;;;;;;;;17.34;47.89;101730.59;5095919;28;1057;-49
2023/01/03 01:44:42;;;;;;;;;;;;;;;17.65;48.37;101725.47;5096593;28;1104;-49
2023/01/03 01:47:10;;;;;;;;;;;;;;;17.13;47.94;101734.16;5095271;28;1150;-50
2023/01/03 01:49:36;;;;;;;;;;;;;;;18.19;47.89;101734.84;5096395;28;844;-47
2023/01/03 01:52:01;;;;;;;;;;;;;;;17.53;48.55;101727.50;5095521;28;1117;-51
2023/01/03 01:54:27;;;;;;;;;;;;;;;17.16;47.61;101730.91;5094833;28;1909;-47
2023/01/03 01:56:53;;;;;;;;;;;;;;;18.24;47.47;101721.13;5095932;28;1090;-49
2023/01/03 01:59:18;;;;;;;;;;;;;;;17.35;48.02;101726.75;5095568;28;1000;-50
2023/01/03 02:01:44;;;;;;;;;;;;;;;17.55;48.70;101715.16;5094025;28;2414;-52
2023/01/03 02:04:14;;;;;;;;;;;;;;;17.84;48.18;101727.84;5086947;28;1107;-49
2023/01/03 02:06:40;;;;;;;;;;;;;;;17.19;48.27;101717.47;5095920;28;1252;-49
2023/01/03 02:09:05;;;;;;;;;;;;;;;17.04;46.89;101720.88;5096057;28;1146;-52
2023/01/03 02:11:50;;;;;;;;;;;;;;;18.48;47.08;101710.56;5095838;28;1160;-49
2023/01/03 02:14:32;;;;;;;;;;;;;;;17.34;48.05;101714.09;5094898;28;1909;-50
2023/01/03 02:17:03;;;;;;;;;;;;;;;17.29;47.84;101714.03;5096083;28;1066;-49
2023/01/03 02:19:32;;;;;;;;;;;;;;;17.73;48.45;101708.50;5095581;28;1110;-48
2023/01/03 02:22:03;;;;;;;;;;;;;;;17.18;47.75;101717.72;5095630;28;1158;-52
2023/01/03 02:24:31;;;;;;;;;;;;;;;18.85;46.68;101714.44;5094665;28;1051;-52
2023/01/03 02:26:57;;;;;;;;;;;;;;;17.65;47.89;101719.13;5095837;28;1233;-49
2023/01/03 02:29:31;;;;;;;;;;;;;;;17.26;47.98;101717.28;5095587;28;1178;-50
2023/01/03 02:32:00;;;;;;;;;;;;;;;17.92;48.38;101720.03;5090664;28;2539;-50
2023/01/03 02:34:26;;;;;;;;;;;;;;;17.27;47.94;101721.72;5094294;28;1917;-50
2023/01/03 02:37:03;;;;;;;;;;;;;;;18.40;47.55;101711.91;5099528;28;1043;-50
2023/01/03 02:39:33;;;;;;;;;;;;;;;17.53;48.09;101705.50;5086837;28;1018;-47
2023/01/03 02:44:53;;;;;;;;;;;;;;;17.98;48.10;101700.78;5087311;28;1034;-51
2023/01/03 02:47:18;;;;;;;;;;;;;;;17.43;47.79;101697.97;5096778;28;1023;-52
2023/01/03 02:49:45;;;;;;;;;;;;;;;17.55;48.36;101703.34;5098920;28;1066;-49
2023/01/03 02:52:18;;;;;;;;;;;;;;;17.94;47.93;101709.56;5098388;28;1162;-52
2023/01/03 02:54:52;;;;;;;;;;;;;;;17.20;47.88;101708.16;5097777;28;1918;-50
2023/01/03 02:57:19;;;;;;;;;;;;;;;18.86;46.74;101699.53;5098286;28;1022;-47
2023/01/03 02:59:54;;;;;;;;;;;;;;;17.55;48.38;101700.59;5097331;28;1178;-47
2023/01/03 03:02:20;;;;;;;;;;;;;;;17.22;47.39;101706.00;5090652;28;1851;-50
2023/01/03 03:04:47;;;;;;;;;;;;;;;18.39;47.45;101698.41;5093814;28;1090;-48
2023/01/03 03:07:12;;;;;;;;;;;;;;;17.38;48.00;101696.00;5097778;28;1202;-52
2023/01/03 03:13:12;;;;;;;;;;;;;;;17.15;47.02;101699.00;5098665;28;1042;-48
2023/01/03 03:15:07;;;;;;;;;;;;;;;17.24;47.90;101697.47;5097651;28;1918;-53
2023/01/03 03:17:33;;;;;;;;;;;;;;;17.44;47.95;101697.72;5098987;28;1174;-49
2023/01/03 03:25:31;;;;;;;;;;;;;;;18.11;47.32;101700.38;5098739;28;1150;-51
2023/01/03 03:30:53;;;;;;;;;;;;;;;18.94;46.48;101696.31;5075544;28;1230;-48
2023/01/03 03:33:19;;;;;;;;;;;;;;;17.65;48.31;101699.88;5092295;28;2738;-52
2023/01/03 03:35:54;;;;;;;;;;;;;;;17.32;47.35;101693.44;5097282;28;1222;-51
2023/01/03 03:38:22;;;;;;;;;;;;;;;16.92;47.13;101700.91;5097663;28;1067;-50
2023/01/03 03:46:39;;;;;;;;;;;;;;;18.42;47.35;101690.44;5096924;28;1110;-50
2023/01/03 03:51:49;;;;;;;;;;;;;;;18.90;46.39;101686.91;5092852;28;1071;-52
2023/01/03 03:54:15;;;;;;;;;;;;;;;18.30;47.63;101687.06;5097547;28;1965;-52
2023/01/03 03:56:41;;;;;;;;;;;;;;;17.49;48.13;101693.38;5097105;28;1202;-47
2023/01/03 03:59:07;;;;;;;;;;;;;;;17.28;47.14;101687.63;5096753;28;995;-51
2023/01/03 04:01:32;;;;;;;;;;;;;;;17.86;47.75;101692.66;5093177;28;2209;-52
2023/01/03 04:03:59;;;;;;;;;;;;;;;17.56;48.31;101694.03;5086027;28;1107;-47
2023/01/03 04:06:27;;;;;;;;;;;;;;;17.25;48.23;101701.88;5096755;28;1198;-53
2023/01/03 04:08:52;;;;;;;;;;;;;;;18.58;47.10;101696.03;5096837;28;1103;-51
2023/01/03 04:11:18;;;;;;;;;;;;;;;17.36;48.43;101700.94;5096500;28;1123;-50
2023/01/03 04:13:43;;;;;;;;;;;;;;;17.79;48.23;101710.22;5097455;28;1901;-53
2023/01/03 04:16:09;;;;;;;;;;;;;;;17.86;48.17;101703.69;5097561;28;962;-50
2023/01/03 04:18:34;;;;;;;;;;;;;;;17.33;47.54;101712.44;5096459;28;1078;-52
2023/01/03 04:20:59;;;;;;;;;;;;;;;18.92;46.44;101702.09;5097531;28;1158;-53
2023/01/03 04:23:25;;;;;;;;;;;;;;;17.65;48.23;101700.69;5097300;28;1115;-50
2023/01/03 04:25:50;;;;;;;;;;;;;;;17.29;47.57;101700.28;5095606;28;1175;-50
2023/01/03 04:28:16;;;;;;;;;;;;;;;18.26;47.38;101683.97;5097361;28;1094;-52
2023/01/03 04:30:41;;;;;;;;;;;;;;;17.37;47.84;101697.09;5097274;28;1132;-54
2023/01/03 04:33:07;;;;;;;;;;;;;;;18.42;47.30;101706.13;5092874;28;2519;-54
2023/01/03 04:35:32;;;;;;;;;;;;;;;18.20;47.66;101708.97;5096821;28;1144;-51
2023/01/03 04:37:58;;;;;;;;;;;;;;;17.43;47.75;101700.72;5096923;28;979;-49
2023/01/03 04:40:23;;;;;;;;;;;;;;;18.67;47.24;101699.97;5097321;28;1208;-49
2023/01/03 04:45:33;;;;;;;;;;;;;;;17.32;47.18;101701.69;5097020;28;1145;-48
2023/01/03 04:47:58;;;;;;;;;;;;;;;17.60;47.74;101700.66;5097008;28;1011;-48
2023/01/03 04:50:24;;;;;;;;;;;;;;;17.51;48.14;101696.69;5096501;28;1094;-45
2023/01/03 04:52:49;;;;;;;;;;;;;;;17.20;47.12;101712.81;5096895;28;1042;-51
2023/01/03 04:55:15;;;;;;;;;;;;;;;18.20;47.26;101704.31;5096368;28;1971;-54
2023/01/03 04:57:40;;;;;;;;;;;;;;;17.35;47.95;101704.78;5095966;28;1031;-50
2023/01/03 05:00:06;;;;;;;;;;;;;;;17.27;48.38;101713.47;5096705;28;1079;-50
2023/01/03 05:02:31;;;;;;;;;;;;;;;17.61;48.21;101702.31;5095523;28;2257;-51
2023/01/03 05:04:57;;;;;;;;;;;;;;;17.09;47.89;101712.66;5096695;28;1173;-55
2023/01/03 05:07:22;;;;;;;;;;;;;;;17.89;47.90;101712.25;5096760;28;1102;-50
2023/01/03 05:09:48;;;;;;;;;;;;;;;17.53;48.16;101705.50;5096304;28;1058;-51
2023/01/03 05:12:13;;;;;;;;;;;;;;;17.09;47.62;101715.41;5096311;28;1086;-47
2023/01/03 05:14:40;;;;;;;;;;;;;;;16.96;46.96;101717.69;5095772;28;1905;-47
2023/01/03 05:17:08;;;;;;;;;;;;;;;17.75;48.02;101711.84;5096665;28;1222;-45
2023/01/03 05:19:33;;;;;;;;;;;;;;;17.04;48.02;101718.13;5096754;28;1150;-52
2023/01/03 05:27:27;;;;;;;;;;;;;;;17.33;47.64;101704.19;5096308;28;1146;-48
2023/01/03 05:29:52;;;;;;;;;;;;;;;18.00;48.23;101717.88;5095982;28;1078;-45
2023/01/03 05:32:17;;;;;;;;;;;;;;;17.52;48.01;101709.38;5092101;28;2503;-47
2023/01/03 05:34:43;;;;;;;;;;;;;;;18.25;47.75;101709.84;5095909;28;1898;-48
2023/01/03 05:37:08;;;;;;;;;;;;;;;18.71;46.81;101714.88;5095636;28;1018;-48
2023/01/03 05:39:34;;;;;;;;;;;;;;;17.55;48.10;101704.16;5090533;28;992;-46
2023/01/03 05:41:59;;;;;;;;;;;;;;;17.33;47.28;101714.34;5095354;28;1234;-47
2023/01/03 05:44:25;;;;;;;;;;;;;;;17.96;48.02;101714.81;5096388;28;1222;-47
2023/01/03 05:46:51;;;;;;;;;;;;;;;17.49;48.27;101712.59;5096406;28;987;-48
2023/01/03 05:49:16;;;;;;;;;;;;;;;17.08;47.84;101719.28;5095775;28;1031;-48
2023/01/03 05:51:41;;;;;;;;;;;;;;;18.06;47.69;101714.06;5095664;28;847;-50
2023/01/03 05:54:07;;;;;;;;;;;;;;;17.25;47.99;101710.97;5095764;28;1922;-51
2023/01/03 05:56:32;;;;;;;;;;;;;;;18.68;47.18;101717.31;5095719;28;1026;-49
2023/01/03 05:58:58;;;;;;;;;;;;;;;17.89;48.32;101720.50;5095216;28;1089;-50
2023/01/03 06:01:27;;;;;;;;;;;;;;;17.40;47.71;101721.34;5095913;28;1356;-45
2023/01/03 06:03:52;;;;;;;;;;;;;;;17.13;47.00;101724.00;5090577;28;2664;-45
2023/01/03 06:06:18;;;;;;;;;;;;;;;17.72;47.83;101719.75;5095802;28;1046;-46
2023/01/03 06:08:43;;;;;;;;;;;;;;;17.29;48.33;101719.53;5095668;28;1050;-47
2023/01/03 06:11:12;;;;;;;;;;;;;;;17.05;48.02;101717.00;5099307;28;1201;-50
2023/01/03 06:13:38;;;;;;;;;;;;;;;18.23;47.27;101716.69;5099416;28;1993;-49
2023/01/03 06:18:48;;;;;;;;;;;;;;;17.70;48.29;101725.53;5099493;28;1180;-47
2023/01/03 06:21:14;;;;;;;;;;;;;;;17.39;48.40;101719.66;5098948;28;1100;-52
2023/01/03 06:23:39;;;;;;;;;;;;;;;17.73;47.35;101722.25;5099990;28;1138;-51
2023/01/03 06:26:04;;;;;;;;;;;;;;;17.84;47.37;101716.84;5099190;28;1082;-55
2023/01/03 06:28:30;;;;;;;;;;;;;;;17.29;48.62;101722.25;5096241;28;859;-53
2023/01/03 06:30:55;;;;;;;;;;;;;;;16.98;49.37;101726.53;5081806;28;1166;-50
2023/01/03 06:33:21;;;;;;;;;;;;;;;16.73;49.98;101728.63;5090201;28;2693;-48
2023/01/03 06:35:46;;;;;;;;;;;;;;;16.54;50.60;101721.75;5098554;28;1109;-55
2023/01/03 06:38:12;;;;;;;;;;;;;;;16.41;50.70;101728.38;5099303;28;1200;-48
2023/01/03 06:40:37;;;;;;;;;;;;;;;16.29;50.92;101724.91;5080951;28;1210;-51
2023/01/03 06:43:02;;;;;;;;;;;;;;;16.11;51.37;101718.53;5089907;28;1087;-51
2023/01/03 06:53:41;;;;;;;;;;;;;;;15.65;52.21;101732.19;5097695;28;1897;-50
2023/01/03 06:56:07;;;;;;;;;;;;;;;15.55;52.25;101732.00;5098775;28;1018;-47
2023/01/03 06:58:32;;;;;;;;;;;;;;;15.95;51.70;101731.16;5098403;28;1019;-52
2023/01/03 07:00:58;;;;;;;;;;;;;;;17.27;48.58;101735.44;5098705;28;1116;-50
2023/01/03 07:03:24;;;;;;;;;;;;;;;16.32;51.05;101730.69;5089144;28;2353;-51
2023/01/03 07:05:49;;;;;;;;;;;;;;;15.96;51.71;101729.25;5098629;28;1094;-51
2023/01/03 07:08:15;;;;;;;;;;;;;;;15.76;52.38;101737.91;5098547;28;1011;-52
2023/01/03 07:10:40;;;;;;;;;;;;;;;16.12;51.72;101733.94;5098765;28;1134;-49
2023/01/03 07:15:49;;;;;;;;;;;;;;;16.34;50.79;101735.94;5088843;28;1177;-50
2023/01/03 07:18:15;;;;;;;;;;;;;;;16.04;51.56;101724.19;5096412;28;1015;-52
2023/01/03 07:20:41;;;;;;;;;;;;;;;15.85;51.88;101739.19;5098313;28;1031;-47
2023/01/03 07:23:07;;;;;;;;;;;;;;;15.64;52.45;101741.50;5098831;28;1082;-49
2023/01/03 07:25:32;;;;;;;;;;;;;;;16.53;50.53;101742.03;5098319;28;1015;-51
2023/01/03 07:27:57;;;;;;;;;;;;;;;17.05;48.99;101739.00;5094689;28;1196;-51
2023/01/03 07:30:23;;;;;;;;;;;;;;;16.18;51.35;101746.66;5098671;28;1200;-49
2023/01/03 07:32:48;;;;;;;;;;;;;;;15.92;51.76;101745.34;5078480;28;1998;-50
2023/01/03 07:35:14;;;;;;;;;;;;;;;15.69;52.38;101744.34;5078629;28;1914;-52
2023/01/03 07:37:39;;;;;;;;;;;;;;;16.35;51.14;101746.66;5097868;28;1066;-48
2023/01/03 07:40:05;;;;;;;;;;;;;;;17.02;49.21;101749.66;5084656;28;1231;-47
2023/01/03 07:45:14;;;;;;;;;;;;;;;15.86;51.96;101741.66;5098496;28;1046;-47
2023/01/03 07:47:43;;;;;;;;;;;;;;;16.06;51.81;101746.72;5082407;28;1134;-50
2023/01/03 07:50:09;;;;;;;;;;;;;;;17.19;48.60;101752.38;5077754;28;1206;-51
2023/01/03 07:52:34;;;;;;;;;;;;;;;16.27;50.84;101749.00;5093707;28;1027;-52
2023/01/03 07:55:00;;;;;;;;;;;;;;;15.94;51.75;101756.91;5097579;28;1971;-48
2023/01/03 07:57:25;;;;;;;;;;;;;;;15.75;52.52;101756.22;5097768;28;1324;-47
2023/01/03 07:59:50;;;;;;;;;;;;;;;16.08;51.78;101744.56;5097449;28;1229;-47
2023/01/03 08:02:18;;;;;;;;;;;;;;;17.14;48.54;101750.41;5092334;28;2034;-50
2023/01/03 08:04:43;;;;;;;;;;;;;;;16.23;50.87;101749.50;5089891;28;843;-50
2023/01/03 08:07:08;;;;;;;;;;;;;;;15.87;52.05;101748.00;5091332;28;1059;-49
2023/01/03 08:15:18;;;;;;;;;;;;;;;17.22;48.41;101743.63;5023331;28;1985;-51
2023/01/03 08:17:44;;;;;;;;;;;;;;;16.28;50.85;101746.00;5086677;28;1251;-48
2023/01/03 08:20:09;;;;;;;;;;;;;;;15.94;51.88;101751.44;5089594;28;832;-46
2023/01/03 08:22:35;;;;;;;;;;;;;;;15.72;52.20;101738.38;5079477;28;1119;-50
2023/01/03 08:25:00;;;;;;;;;;;;;;;17.20;48.70;101745.81;5097027;28;991;-49
2023/01/03 08:27:26;;;;;;;;;;;;;;;16.40;50.58;101743.19;5083372;28;1485;-48
2023/01/03 08:29:51;;;;;;;;;;;;;;;16.01;51.53;101740.31;5088260;28;1174;-51
2023/01/03 08:32:16;;;;;;;;;;;;;;;15.78;52.34;101742.06;5087696;28;2017;-47
2023/01/03 08:34:43;;;;;;;;;;;;;;;15.64;52.50;101737.91;5083600;28;1974;-51
2023/01/03 08:37:09;;;;;;;;;;;;;;;17.04;49.07;101728.25;5091542;28;1127;-48
2023/01/03 08:39:40;;;;;;;;;;;;;;;16.70;50.01;101736.53;5092548;28;1091;-50
2023/01/03 08:42:06;;;;;;;;;;;;;;;16.10;51.27;101732.50;5076724;28;1102;-50
2023/01/03 08:44:31;;;;;;;;;;;;;;;15.87;51.92;101726.06;5095629;28;1249;-50
2023/01/03 08:46:57;;;;;;;;;;;;;;;15.73;52.47;101739.22;5095122;28;1162;-50
2023/01/03 08:49:22;;;;;;;;;;;;;;;16.66;50.01;101730.72;5095369;28;1230;-49
2023/01/03 08:51:48;;;;;;;;;;;;;;;17.04;48.85;101726.34;5093917;28;1183;-50
2023/01/03 08:54:13;;;;;;;;;;;;;;;16.22;51.24;101725.06;5096403;28;1976;-48
2023/01/03 08:56:39;;;;;;;;;;;;;;;15.94;51.75;101724.00;5097147;28;1327;-46
2023/01/03 08:59:04;;;;;;;;;;;;;;;15.77;52.19;101720.34;5097109;28;1038;-50
2023/01/03 09:01:30;;;;;;;;;;;;;;;16.30;51.17;101732.03;5082965;28;1149;-49
2023/01/03 09:03:55;;;;;;;;;;;;;;;17.41;48.06;101724.91;5086890;28;2294;-51
2023/01/03 09:06:21;;;;;;;;;;;;;;;16.40;50.75;101721.22;5095941;28;1047;-52
2023/01/03 09:08:46;;;;;;;;;;;;;;;16.04;51.41;101715.94;5095942;28;1186;-52
2023/01/03 09:11:12;;;;;;;;;;;;;;;15.88;51.98;101708.53;5095941;28;1189;-48
2023/01/03 09:13:37;;;;;;;;;;;;;;;15.74;52.25;101703.31;5096306;28;1968;-49
2023/01/03 09:16:06;;;;;;;;;;;;;;;15.63;52.76;101706.13;5092880;28;1083;-52
2023/01/03 09:18:32;;;;;;;;;;;;;;;16.99;49.38;101697.97;5096648;28;1222;-54
2023/01/03 09:20:57;;;;;;;;;;;;;;;16.96;49.02;101692.97;5090074;28;1638;-50
2023/01/03 09:23:23;;;;;;;;;;;;;;;16.18;51.06;101682.72;5094008;28;946;-52
2023/01/03 09:25:48;;;;;;;;;;;;;;;15.95;52.02;101680.94;5094469;28;1088;-50
2023/01/03 09:28:14;;;;;;;;;;;;;;;15.76;52.34;101675.63;5080654;28;1043;-51
2023/01/03 09:30:39;;;;;;;;;;;;;;;16.99;49.49;101679.56;5089536;28;1046;-50
2023/01/03 09:33:04;;;;;;;;;;;;;;;16.85;49.51;101667.25;5083961;28;2097;-52
2023/01/03 09:35:30;;;;;;;;;;;;;;;16.22;51.19;101672.91;5094359;28;1001;-49
2023/01/03 09:37:56;;;;;;;;;;;;;;;15.93;52.03;101669.38;5090400;28;1178;-51
2023/01/03 09:40:21;;;;;;;;;;;;;;;15.77;52.36;101660.84;5080424;28;1110;-49
2023/01/03 09:45:31;;;;;;;;;;;;;;;17.34;48.44;101658.28;5095509;28;1069;-51
2023/01/03 09:47:57;;;;;;;;;;;;;;;16.37;50.81;101653.94;5081711;28;1134;-52
2023/01/03 09:50:23;;;;;;;;;;;;;;;16.06;51.50;101647.09;5092828;28;1194;-49
2023/01/03 10:04:06;;;;;;;;;;;;;;;15.96;51.77;101628.56;5095087;28;1106;-49
2023/01/03 10:06:31;;;;;;;;;;;;;;;15.82;52.23;101621.75;5086918;28;1394;-50
2023/01/03 10:08:59;;;;;;;;;;;;;;;15.70;52.50;101625.38;5077940;28;1130;-48
2023/01/03 10:11:27;;;;;;;;;;;;;;;17.20;49.00;101622.13;5075986;28;1024;-49
2023/01/03 10:14:19;;;;;;;;;;;;;;;16.56;50.24;101609.72;5087746;28;1971;-50
2023/01/03 10:16:51;;;;;;;;;;;;;;;16.04;51.63;101605.38;5086095;28;1265;-51
2023/01/03 10:19:25;;;;;;;;;;;;;;;15.86;52.33;101599.06;5092717;28;1054;-50
2023/01/03 10:21:55;;;;;;;;;;;;;;;15.69;52.69;101596.28;5090241;28;1333;-43
2023/01/03 10:24:22;;;;;;;;;;;;;;;16.42;51.10;101599.13;5082571;28;1166;-45
2023/01/03 10:26:49;;;;;;;;;;;;;;;17.32;48.48;101589.84;5089865;28;1004;-42
2023/01/03 10:29:15;;;;;;;;;;;;;;;16.32;50.87;101590.72;5093775;28;1253;-38
2023/01/03 10:31:40;;;;;;;;;;;;;;;16.01;51.69;101587.50;5090222;28;1811;-44
2023/01/03 10:34:06;;;;;;;;;;;;;;;15.83;52.39;101585.03;5086169;28;1898;-40
2023/01/03 10:36:31;;;;;;;;;;;;;;;15.73;52.45;101578.25;5087133;28;1389;-45
2023/01/03 10:39:04;;;;;;;;;;;;;;;16.77;49.96;101578.72;5081966;28;1078;-41
2023/01/03 10:41:30;;;;;;;;;;;;;;;17.01;49.33;101573.00;5085692;28;1225;-41
2023/01/03 10:43:57;;;;;;;;;;;;;;;16.24;51.31;101574.69;5086264;28;1313;-42
2023/01/03 10:46:24;;;;;;;;;;;;;;;15.99;52.11;101566.91;5087526;28;1226;-47
2023/01/03 10:48:50;;;;;;;;;;;;;;;15.81;52.16;101570.72;5093321;28;1123;-48
2023/01/03 10:51:34;;;;;;;;;;;;;;;15.69;52.81;101566.09;5082197;28;1039;-46
2023/01/03 10:54:00;;;;;;;;;;;;;;;16.51;50.83;101562.97;5094895;28;1910;-50
2023/01/03 10:56:27;;;;;;;;;;;;;;;17.13;49.03;101552.78;5076905;28;1257;-50
2023/01/03 10:59:11;;;;;;;;;;;;;;;16.24;51.02;101555.47;5077759;28;1020;-49
2023/01/03 11:01:36;;;;;;;;;;;;;;;15.91;52.04;101546.22;5086952;28;2330;-45
2023/01/03 11:04:05;;;;;;;;;;;;;;;15.80;52.55;101547.94;5097127;28;1213;-47
2023/01/03 11:06:30;;;;;;;;;;;;;;;15.65;52.86;101544.94;5098301;28;1253;-44
2023/01/03 11:08:58;;;;;;;;;;;;;;;17.17;49.18;101540.19;5098424;28;1170;-47
2023/01/03 11:11:33;;;;;;;;;;;;;;;16.71;50.04;101541.28;5098397;28;1162;-46
2023/01/03 11:14:04;;;;;;;;;;;;;;;16.07;51.86;101531.66;5097330;28;1976;-47
2023/01/03 11:16:30;;;;;;;;;;;;;;;15.92;52.22;101534.13;5097818;28;1253;-50
2023/01/03 11:19:00;;;;;;;;;;;;;;;16.05;52.08;101533.81;5097930;28;1052;-49
2023/01/03 11:21:27;;;;;;;;;;;;;;;17.21;48.96;101530.34;5098043;28;1241;-46
2023/01/03 11:24:05;;;;;;;;;;;;;;;16.32;51.32;101521.28;5096938;28;1054;-47
2023/01/03 11:26:41;;;;;;;;;;;;;;;16.00;51.85;101522.75;5094581;28;1195;-47
2023/01/03 11:29:07;;;;;;;;;;;;;;;15.83;52.54;101521.94;5097881;28;1094;-48
2023/01/03 11:31:40;;;;;;;;;;;;;;;15.76;52.77;101519.34;5097738;28;1859;-45
2023/01/03 11:34:14;;;;;;;;;;;;;;;17.37;48.58;101514.81;5090611;28;1893;-49
2023/01/03 11:36:40;;;;;;;;;;;;;;;16.43;51.05;101518.41;5097461;28;1043;-48
2023/01/03 11:39:18;;;;;;;;;;;;;;;16.09;51.85;101520.44;5097997;28;1097;-47
2023/01/03 11:42:22;;;;;;;;;;;;;;;15.83;52.52;101514.53;5097898;28;1099;-47
2023/01/03 11:44:56;;;;;;;;;;;;;;;16.84;50.32;101518.09;5015980;28;1176;-48
2023/01/03 11:47:34;;;;;;;;;;;;;;;16.68;50.21;101519.84;4999633;28;1124;-47
2023/01/03 11:50:06;;;;;;;;;;;;;;;16.12;51.71;101506.19;5053663;28;1082;-45
2023/01/03 11:52:37;;;;;;;;;;;;;;;15.91;52.46;101505.06;5097756;28;1198;-47
2023/01/03 11:55:15;;;;;;;;;;;;;;;15.69;53.04;101497.56;5097571;28;1972;-43
2023/01/03 11:57:40;;;;;;;;;;;;;;;16.60;50.75;101503.81;5097461;28;1023;-49
2023/01/03 12:00:15;;;;;;;;;;;;;;;16.80;49.79;101494.16;5097739;28;1134;-51
2023/01/03 12:02:46;;;;;;;;;;;;;;;16.12;51.98;101492.47;5088171;28;2375;-50
2023/01/03 12:05:27;;;;;;;;;;;;;;;15.88;52.53;101500.09;5097798;28;1093;-48
2023/01/03 12:08:11;;;;;;;;;;;;;;;15.72;52.91;101485.28;5097378;28;999;-43
2023/01/03 12:10:45;;;;;;;;;;;;;;;16.79;50.28;101487.84;5097792;28;1090;-46
2023/01/03 12:13:17;;;;;;;;;;;;;;;16.67;50.20;101495.38;5097217;28;1909;-47
2023/01/03 12:15:57;;;;;;;;;;;;;;;16.11;52.06;101488.06;5097448;28;1099;-47
2023/01/03 12:18:41;;;;;;;;;;;;;;;15.83;52.76;101484.38;5093745;28;906;-48
2023/01/03 12:21:10;;;;;;;;;;;;;;;15.68;53.12;101482.22;5097269;28;1183;-48
2023/01/03 12:23:48;;;;;;;;;;;;;;;17.03;49.75;101482.88;5091829;28;1050;-47
2023/01/03 12:26:14;;;;;;;;;;;;;;;16.52;50.69;101487.78;5088432;28;1174;-50
2023/01/03 12:28:39;;;;;;;;;;;;;;;16.04;51.93;101480.00;5097177;28;1214;-48
2023/01/03 12:31:20;;;;;;;;;;;;;;;15.86;52.43;101491.28;5090978;28;1226;-49
2023/01/03 12:33:54;;;;;;;;;;;;;;;15.68;52.87;101479.47;5086305;28;1909;-48
2023/01/03 12:36:20;;;;;;;;;;;;;;;16.29;51.51;101480.63;5091839;28;1143;-50
2023/01/03 12:38:50;;;;;;;;;;;;;;;17.36;48.61;101478.25;5087308;28;1304;-50
2023/01/03 12:41:31;;;;;;;;;;;;;;;16.38;51.39;101490.91;5091695;28;1163;-49
2023/01/03 12:44:01;;;;;;;;;;;;;;;15.97;52.15;101478.56;5092525;28;1099;-49
2023/01/03 12:46:34;;;;;;;;;;;;;;;15.83;52.67;101481.63;5096355;28;1146;-54
2023/01/03 12:49:05;;;;;;;;;;;;;;;16.03;52.22;101483.88;5094815;28;1229;-50
2023/01/03 12:51:31;;;;;;;;;;;;;;;17.54;48.57;101487.19;5096992;28;1046;-48
2023/01/03 12:54:02;;;;;;;;;;;;;;;16.67;50.60;101476.16;5087967;28;1909;-46
2023/01/03 12:56:46;;;;;;;;;;;;;;;16.13;52.18;101485.91;5087988;28;1038;-51
2023/01/03 12:59:20;;;;;;;;;;;;;;;15.95;52.59;101481.53;5087120;28;1162;-49
2023/01/03 13:01:47;;;;;;;;;;;;;;;15.78;52.69;101483.44;5094659;28;2142;-52
2023/01/03 13:04:16;;;;;;;;;;;;;;;15.64;53.34;101475.56;5096330;28;1031;-50
2023/01/03 13:06:45;;;;;;;;;;;;;;;17.15;49.61;101479.16;5087882;28;876;-50
2023/01/03 13:09:16;;;;;;;;;;;;;;;16.37;51.58;101489.25;5090184;28;1043;-43
2023/01/03 13:11:43;;;;;;;;;;;;;;;15.97;52.41;101484.03;5096865;28;1110;-46
2023/01/03 13:14:18;;;;;;;;;;;;;;;15.79;52.85;101485.97;5091764;28;1988;-51
2023/01/03 13:16:51;;;;;;;;;;;;;;;16.30;51.95;101493.25;5081773;28;940;-48
2023/01/03 13:19:22;;;;;;;;;;;;;;;17.21;49.22;101478.13;5087588;28;1215;-49
2023/01/03 13:21:50;;;;;;;;;;;;;;;16.34;51.57;101486.16;5081057;28;1181;-50
2023/01/03 13:24:34;;;;;;;;;;;;;;;15.98;52.56;101493.94;5091600;28;1079;-48
2023/01/03 13:27:15;;;;;;;;;;;;;;;15.80;53.16;101492.28;5096102;28;895;-47
2023/01/03 13:29:42;;;;;;;;;;;;;;;15.65;53.43;101493.66;5093516;28;1327;-51
2023/01/03 13:32:17;;;;;;;;;;;;;;;15.88;53.14;101489.13;5087059;28;1919;-50
2023/01/03 13:34:42;;;;;;;;;;;;;;;17.33;49.06;101487.00;5087996;28;1913;-51
2023/01/03 13:37:08;;;;;;;;;;;;;;;16.34;51.75;101502.63;5086767;28;1295;-48
2023/01/03 13:39:53;;;;;;;;;;;;;;;15.95;52.72;101503.50;5086025;28;1273;-49
2023/01/03 13:42:25;;;;;;;;;;;;;;;17.08;49.95;101499.44;5082827;28;1161;-51
2023/01/03 13:44:53;;;;;;;;;;;;;;;16.76;50.70;101491.09;5094353;28;1110;-52
2023/01/03 13:47:25;;;;;;;;;;;;;;;16.20;52.11;101491.19;5089714;28;1115;-53
2023/01/03 13:49:50;;;;;;;;;;;;;;;15.90;52.83;101493.25;5076183;28;1094;-48
2023/01/03 13:52:34;;;;;;;;;;;;;;;15.77;53.13;101492.72;5087434;28;1054;-50
2023/01/03 13:55:01;;;;;;;;;;;;;;;15.66;53.30;101500.81;5087767;28;1980;-45
2023/01/03 13:57:28;;;;;;;;;;;;;;;16.64;51.15;101501.38;5089662;28;1003;-50
2023/01/03 13:59:53;;;;;;;;;;;;;;;17.08;49.97;101498.59;5083500;28;1150;-47
2023/01/03 14:02:37;;;;;;;;;;;;;;;16.29;51.95;101499.84;5093683;28;2021;-53
2023/01/03 14:05:12;;;;;;;;;;;;;;;15.92;52.81;101501.22;5085884;28;1082;-50